x

Georges Bank 170 Nm East Of Hyannis, Ma (44011) Wave Buoy

3:50am - Tue 4th Aug 2015 All times are EDT. -4 hours from GMT.

  • Sig Wave height 4.3ft
  • Swell Direction
  • Peak Period 8s
  • Average Period 6s
  • Wind
    7mph, 9mph gusts
  • Sea Temp 66°f
  • Air Temp 69°f
  • Sea Pressure 1013.4mb
  • Georges Bank 170 Nm East Of Hyannis, Ma
  • Georges Bank 170 Nm East Of Hyannis, Ma

More Historic Weather Station data

Upgrade to MSW Pro to gain access to the past 30 days of data for over 8000 Wavebouys and Weather Stations around the globe.

Join Pro

Comparision Forecast

View Surf forecast
   
Tue 08/04 3:50am 4.5ft 8s 6s 7 9 mph 1013.4mb 66f 69f
2:50am 4.5ft 7s 6s 11
mph
1013.2mb 66f 70f
1:50am 4ft 7s 6s 11 13 mph 1013.2mb 66f 71f
12:50am 3.5ft 8s  -  13 16 mph 1013.4mb 66f 72f
Mon 08/03 11:50pm 4ft 8s 6s 11 13 mph 1013.5mb 66f 71f
10:50pm 4ft 8s 6s 11 13 mph 1013.5mb 66f 71f
9:50pm 4.5ft 8s 6s 11 13 mph 1013.8mb 66f 71f
8:50pm 4.5ft 8s 6s 11 13 mph 1013.7mb 66f 71f
7:50pm 5ft 8s 7s 9 11 mph 1013.8mb 67f 71f
6:50pm 5ft 8s 7s 9
mph
1013.9mb 67f 71f
5:50pm 5ft 8s 7s 7 9 mph 1013.7mb 67f 72f
4:50pm 5.5ft 8s 7s 9 11 mph 1013.6mb 67f 73f
3:50pm 5ft 8s 7s 9
mph
1013.7mb 67f 71f
2:50pm 4.5ft 8s 7s 7 9 mph 1013.8mb 68f 72f
1:50pm 4.5ft 8s 7s 9
mph
1014.3mb 69f 73f
12:50pm 3.5ft 8s 6s 7 9 mph 1014.6mb 69f 73f
11:50am 4ft 8s 6s 7
mph
1014.6mb 68f 72f
10:50am 4.5ft 8s 7s 7
mph
1014.5mb 66f 71f
9:50am 4.5ft 8s 6s 7
mph
1014mb 66f 71f
8:50am 4.5ft 8s 6s 4
mph
1014mb 66f 70f
7:50am 4.5ft 7s 6s 7
mph
1014mb 66f 71f
6:50am 4.5ft 8s 7s 7
mph
1013.8mb 66f 71f
5:50am 4.5ft 9s 7s 4 7 mph 1013.6mb 67f 71f
4:50am 4ft 8s 6s  -  mph 1013.3mb 67f 70f
3:50am 4.5ft 8s 6s  -  2 mph 1013.3mb 67f 69f
2:50am 4.5ft 9s 6s 4 7 mph 1013.6mb 67f 70f
1:50am 4ft 8s 6s 7
mph
1013.3mb 67f 70f
12:50am 4.5ft 8s 6s 7
mph
1013.8mb 67f 69f
Sun 08/02 11:50pm 4.5ft 8s 6s 7 9 mph 1014.3mb 67f 69f
10:50pm 5ft 7s 6s 7 9 mph 1014.3mb 67f 68f
9:50pm 5ft 7s 6s  -  2 mph 1014.5mb 68f 68f
8:50pm 4.5ft 7s 6s 4
mph
1014.3mb 69f 68f
7:50pm 4.5ft 8s 6s 2 4 mph 1013.9mb 69f 68f
6:50pm 5ft 9s 7s 2 4 mph 1013.6mb 69f 70f
5:50pm 5ft 8s 7s 4
mph
1013.6mb 69f 70f
4:50pm 5ft 8s 7s 2 4 mph 1013.4mb 69f 70f
3:50pm 5ft 9s 6s 7
mph
1013.2mb 68f 69f
2:50pm 5ft 9s 6s 9
mph
1013.3mb 68f 69f
1:50pm 4.5ft 8s 6s 7
mph
1013mb 67f 69f
12:50pm 5ft 8s 6s 7 9 mph 1013mb 67f 68f
11:50am 5ft 9s 6s 7 9 mph 1012.7mb 66f 68f
10:50am 5ft 7s 6s 7
mph
1012.4mb 66f 68f
9:50am 5ft 9s 6s 9
mph
1012.1mb 65f 67f
8:50am 5ft 10s 6s 9 11 mph 1011.7mb 65f 69f
7:50am 6ft 9s 7s 9 11 mph 1011.4mb 65f 69f
6:50am 6ft 9s 7s 11 13 mph 1010.9mb 66f 69f
5:50am 5.5ft 10s 7s 11
mph
1010.7mb 66f 69f
4:50am 6ft 10s 7s 11 13 mph 1009.9mb 66f 69f
3:50am 7ft 10s 7s 11 13 mph 1009.7mb 66f 69f
2:50am 6ft 9s 7s 13 16 mph 1009.8mb 67f 71f
1:50am 6.5ft 10s 7s 11 13 mph 1010.1mb 67f 69f
12:50am 6ft 10s 7s 16 18 mph 1010.2mb 67f 71f
Sat 08/01 11:50pm 6ft 10s 7s 18 20 mph 1010.3mb 67f 72f
10:50pm 6ft 11s 7s 16 18 mph 1010.1mb 67f 71f
9:50pm 6ft 10s 7s 13 16 mph 1010.1mb 68f 71f
8:50pm 6.5ft 10s 8s 13 16 mph 1009.9mb 68f 71f
7:50pm 6.5ft 10s 8s 13 16 mph 1009.3mb 68f 71f
6:50pm 6ft 10s 8s 11 13 mph 1009mb 68f 71f
5:50pm 5.5ft 10s 7s 11
mph
1009mb 68f 71f
4:50pm 6ft 9s 8s 9 11 mph 1009.4mb 68f 70f
3:50pm 5.5ft 10s 7s 11 16 mph 1009.4mb 68f 70f
2:50pm 6ft 9s 7s 9 11 mph 1009.6mb 68f 69f
1:50pm 6ft 10s 7s 7 9 mph 1009.6mb 68f 68f
12:50pm 6ft 9s 7s 9 11 mph 1009.6mb 67f 68f
11:50am 6ft 8s 7s 7 9 mph 1009.7mb 67f 67f
10:50am 5.5ft 9s 7s 9 11 mph 1009.5mb 66f 67f
9:50am 6.5ft 8s 7s 7 9 mph 1009.3mb 66f 67f
8:50am 6ft 8s 7s 7 9 mph 1008.8mb 66f 68f
7:50am 6.5ft 8s 7s 4 7 mph 1008.4mb 65f 69f
6:50am 6ft 8s 7s 4
mph
1008.1mb 65f 68f
5:50am 6ft 8s 7s 4
mph
1008.2mb 65f 67f
4:50am 5.5ft 8s 7s 4 7 mph 1008.5mb 65f 67f
3:50am 5.5ft 8s 7s 4 7 mph 1008.5mb 65f 67f
2:50am 5.5ft 8s 7s 7
mph
1008.9mb 65f 67f
1:50am 5ft 8s 6s 7 9 mph 1009.3mb 65f 68f
12:50am 5ft 8s 6s 7
mph
1009.6mb 65f 67f
Fri 07/31 11:50pm 5ft 7s 6s 7 9 mph 1010.1mb 66f 67f
10:50pm 5ft 8s 6s 4 7 mph 1009.8mb 66f 67f
9:50pm 5ft 8s 6s 7
mph
1009.6mb 66f 67f
8:50pm 5.5ft 8s 6s 7
mph
1009.4mb 66f 66f
7:50pm 6ft 8s 6s 4 7 mph 1009.1mb 66f 66f
6:50pm 6ft 7s 6s 7 9 mph 1008.7mb 66f 66f
5:50pm 5ft 7s 6s 7
mph
1008.7mb 67f 66f
4:50pm 4.5ft 7s 6s 7 9 mph 1008.7mb 67f 67f
3:50pm 5ft 7s 6s 9 11 mph 1008.7mb 67f 68f
2:50pm 5ft 7s 6s 9 11 mph 1009mb 67f 67f
1:50pm 4.5ft 6s 6s 11 13 mph 1009.2mb 67f 68f
12:50pm 4ft 6s 6s 11 13 mph 1009.4mb 67f 68f
11:50am 3.5ft 5s 5s 16 18 mph 1009.2mb 67f 69f
10:50am 3.5ft 9s 5s 9
mph
1009.3mb 67f 68f
9:50am 3.5ft 10s 5s 11 13 mph 1009.7mb 67f 68f